Time;durP1;ratioP1;P1;durP2;ratioP2;P2;SDS_P1;SDS_P2;PMS_P1;PMS_P2;Temp;Humidity;BMP_temperature;BMP_pressure;BME280_temperature;BME280_humidity;BME280_pressure;Samples;Min_cycle;Max_cycle;Signal;HPM_P1;HPM_P2
2023/05/12 00:00:44;;;;;;;32.30;15.75;;;13.10;99.90;;;;;;5082174;28;20811;-60
2023/05/12 00:03:11;;;;;;;38.50;19.83;;;13.20;99.90;;;;;;5083128;28;20414;-60
2023/05/12 00:05:39;;;;;;;52.70;25.15;;;13.20;99.90;;;;;;5082893;28;20406;-61
2023/05/12 00:08:05;;;;;;;56.45;27.15;;;13.20;99.90;;;;;;5081948;28;20423;-61
2023/05/12 00:10:34;;;;;;;62.10;28.17;;;13.20;99.90;;;;;;5082289;28;20468;-60
2023/05/12 00:13:00;;;;;;;58.47;29.17;;;13.20;99.90;;;;;;5078391;28;20435;-58
2023/05/12 00:15:27;;;;;;;59.45;29.95;;;13.20;99.90;;;;;;5082673;28;20888;-60
2023/05/12 00:17:54;;;;;;;67.47;31.92;;;13.30;99.90;;;;;;5083741;28;20410;-60
2023/05/12 00:20:21;;;;;;;69.97;32.70;;;13.30;99.90;;;;;;5082680;28;20412;-62
2023/05/12 00:22:49;;;;;;;73.97;35.05;;;13.30;99.90;;;;;;5081727;28;20412;-61
2023/05/12 00:25:15;;;;;;;78.65;35.55;;;13.20;99.90;;;;;;5078566;28;20412;-59
2023/05/12 00:27:42;;;;;;;72.50;34.95;;;13.20;99.90;;;;;;5082003;28;20434;-59
2023/05/12 00:30:10;;;;;;;80.05;36.33;;;13.20;99.90;;;;;;5083744;28;20901;-60
2023/05/12 00:32:37;;;;;;;73.22;35.22;;;13.20;99.90;;;;;;5082744;28;20472;-60
2023/05/12 00:35:04;;;;;;;76.78;35.08;;;13.20;99.90;;;;;;5081338;28;20473;-60
2023/05/12 00:37:31;;;;;;;77.88;35.00;;;13.20;99.90;;;;;;5081597;28;20831;-60
2023/05/12 00:39:59;;;;;;;70.47;33.80;;;13.30;99.90;;;;;;5083135;28;20418;-61
2023/05/12 00:42:26;;;;;;;61.55;31.58;;;13.40;99.90;;;;;;5081355;28;20416;-60
2023/05/12 00:44:52;;;;;;;60.17;30.25;;;13.40;99.90;;;;;;5082385;28;20410;-61
2023/05/12 00:47:20;;;;;;;60.20;30.02;;;13.30;99.90;;;;;;5083360;28;20406;-60
2023/05/12 00:49:47;;;;;;;56.85;29.13;;;13.40;99.90;;;;;;5081592;28;20423;-61
2023/05/12 00:52:13;;;;;;;54.47;27.75;;;13.50;99.90;;;;;;5081397;28;20431;-60
2023/05/12 00:54:43;;;;;;;55.33;26.67;;;13.50;99.90;;;;;;5082118;28;20906;-60
2023/05/12 00:57:11;;;;;;;53.80;26.50;;;13.50;99.90;;;;;;5079640;28;20422;-60
2023/05/12 00:59:37;;;;;;;50.10;25.88;;;13.40;99.90;;;;;;5083372;28;20889;-58
2023/05/12 01:02:06;;;;;;;48.53;25.03;;;13.30;99.90;;;;;;5082448;28;20434;-60
2023/05/12 01:04:33;;;;;;;50.28;24.27;;;13.30;99.90;;;;;;5080985;28;20411;-59
2023/05/12 01:07:06;;;;;;;42.15;21.63;;;13.30;99.90;;;;;;5080504;28;20473;-61
2023/05/12 01:09:32;;;;;;;35.17;19.55;;;13.30;99.90;;;;;;5080620;28;20471;-59
2023/05/12 01:11:59;;;;;;;33.80;18.03;;;13.30;99.90;;;;;;5081592;28;20947;-60
2023/05/12 01:14:27;;;;;;;34.83;17.20;;;13.20;99.90;;;;;;5081018;28;20461;-60
2023/05/12 01:16:58;;;;;;;33.30;17.10;;;13.20;99.90;;;;;;5077036;28;20412;-60
2023/05/12 01:19:41;;;;;;;28.95;14.93;;;13.20;99.90;;;;;;5080935;28;20511;-60
2023/05/12 01:22:08;;;;;;;21.63;12.90;;;13.20;99.90;;;;;;5081190;28;20813;-60
2023/05/12 01:24:42;;;;;;;20.47;12.47;;;13.30;99.90;;;;;;5083005;28;20466;-60
2023/05/12 01:27:11;;;;;;;19.10;11.85;;;13.30;99.90;;;;;;5082884;28;20409;-60
2023/05/12 01:29:38;;;;;;;18.90;11.30;;;13.20;99.90;;;;;;5081255;28;20412;-60
2023/05/12 01:32:06;;;;;;;16.95;11.10;;;13.20;99.90;;;;;;5080920;28;20423;-60
2023/05/12 01:34:34;;;;;;;16.40;10.43;;;13.20;99.90;;;;;;5082840;28;20475;-60
2023/05/12 01:37:01;;;;;;;13.70;9.65;;;13.20;99.90;;;;;;5078537;28;20414;-60
2023/05/12 01:39:27;;;;;;;13.90;9.38;;;13.20;99.90;;;;;;5082688;28;20440;-60
2023/05/12 01:41:54;;;;;;;11.45;7.72;;;13.20;99.90;;;;;;5078773;28;20457;-60
2023/05/12 01:44:22;;;;;;;10.70;7.67;;;13.20;99.90;;;;;;5082758;28;20414;-60
2023/05/12 01:46:49;;;;;;;10.68;6.75;;;13.30;99.90;;;;;;5082199;28;20808;-60
2023/05/12 01:49:15;;;;;;;9.23;6.93;;;13.20;99.90;;;;;;5081944;28;20406;-59
2023/05/12 01:51:42;;;;;;;10.30;6.60;;;13.30;99.90;;;;;;5079642;28;20411;-60
2023/05/12 01:54:08;;;;;;;7.38;5.78;;;13.30;99.90;;;;;;5081806;28;20763;-60
2023/05/12 01:56:35;;;;;;;7.57;6.07;;;13.30;99.90;;;;;;5082234;28;20455;-61
2023/05/12 01:59:02;;;;;;;9.75;6.72;;;13.20;99.90;;;;;;5076489;28;20407;-60
2023/05/12 02:01:31;;;;;;;8.90;6.10;;;13.20;99.90;;;;;;5080870;28;20416;-59
2023/05/12 02:03:57;;;;;;;10.38;5.90;;;13.30;99.90;;;;;;5082353;28;20413;-59
2023/05/12 02:06:24;;;;;;;7.93;5.75;;;13.30;99.90;;;;;;5077453;28;20411;-60
2023/05/12 02:08:51;;;;;;;8.55;5.80;;;13.30;99.90;;;;;;5079674;28;20422;-60
2023/05/12 02:11:18;;;;;;;7.30;5.63;;;13.30;99.90;;;;;;5082099;28;20412;-60
2023/05/12 02:13:44;;;;;;;7.93;6.07;;;13.30;99.90;;;;;;5081670;28;20418;-60
2023/05/12 02:16:11;;;;;;;8.35;5.53;;;13.20;99.90;;;;;;5079150;28;20916;-60
2023/05/12 02:18:39;;;;;;;10.55;6.10;;;13.30;99.90;;;;;;5081212;28;20459;-61
2023/05/12 02:21:06;;;;;;;6.80;5.80;;;13.30;99.90;;;;;;5081990;28;20414;-61
2023/05/12 02:23:32;;;;;;;7.53;5.55;;;13.30;99.90;;;;;;5080131;28;20408;-60
2023/05/12 02:25:59;;;;;;;8.30;5.80;;;13.30;99.90;;;;;;5080161;28;20481;-61
2023/05/12 02:28:26;;;;;;;14.30;6.22;;;13.30;99.90;;;;;;5081852;28;20478;-61
2023/05/12 02:30:53;;;;;;;9.35;5.97;;;13.30;99.90;;;;;;5080892;28;20887;-61
2023/05/12 02:33:20;;;;;;;8.50;6.10;;;13.20;99.90;;;;;;5075887;28;20450;-60
2023/05/12 02:35:49;;;;;;;10.80;6.57;;;13.10;99.90;;;;;;5075212;28;20484;-60
2023/05/12 02:38:16;;;;;;;9.55;6.75;;;12.90;99.90;;;;;;5082521;28;20909;-61
2023/05/12 02:40:42;;;;;;;11.55;6.40;;;12.80;99.90;;;;;;5079495;28;20415;-58
2023/05/12 02:43:09;;;;;;;10.63;6.47;;;12.80;99.90;;;;;;5080442;28;20451;-60
2023/05/12 02:45:36;;;;;;;8.75;6.40;;;12.90;99.90;;;;;;5081764;28;20793;-61
2023/05/12 02:48:03;;;;;;;8.98;6.78;;;12.80;99.90;;;;;;5079594;28;20761;-59
2023/05/12 02:50:29;;;;;;;11.95;7.28;;;12.80;99.90;;;;;;5079351;28;20923;-61
2023/05/12 02:52:57;;;;;;;10.50;7.60;;;12.70;99.90;;;;;;5081668;28;20475;-60
2023/05/12 02:55:24;;;;;;;11.47;7.77;;;12.70;99.90;;;;;;5081169;28;20413;-61
2023/05/12 02:57:51;;;;;;;13.07;7.50;;;12.70;99.90;;;;;;5079021;28;20408;-60
2023/05/12 03:00:18;;;;;;;10.13;7.00;;;12.70;99.90;;;;;;5081063;28;20809;-60
2023/05/12 03:02:44;;;;;;;10.80;6.13;;;12.80;99.90;;;;;;5081364;28;20405;-60
2023/05/12 03:05:11;;;;;;;11.57;6.07;;;12.90;99.90;;;;;;5075348;28;20572;-60
2023/05/12 03:07:38;;;;;;;10.18;5.72;;;12.80;99.90;;;;;;5078423;28;20415;-60
2023/05/12 03:10:08;;;;;;;6.32;5.40;;;12.80;99.90;;;;;;5081606;28;20475;-61
2023/05/12 03:12:35;;;;;;;8.63;4.90;;;12.90;99.90;;;;;;5080309;28;20510;-59
2023/05/12 03:15:04;;;;;;;6.10;5.30;;;12.90;99.90;;;;;;5078224;28;21494;-61
2023/05/12 03:17:31;;;;;;;9.80;5.28;;;12.90;99.90;;;;;;5080469;28;20405;-60
2023/05/12 03:19:57;;;;;;;9.38;6.30;;;12.70;99.90;;;;;;5085358;28;20410;-59
2023/05/12 03:22:24;;;;;;;9.55;6.90;;;12.50;99.90;;;;;;5079219;28;20461;-60
2023/05/12 03:24:51;;;;;;;8.30;6.75;;;12.40;99.90;;;;;;5083653;28;20411;-60
2023/05/12 03:27:19;;;;;;;10.43;6.25;;;12.40;99.90;;;;;;5085057;28;20864;-61
2023/05/12 03:29:46;;;;;;;8.95;6.30;;;12.40;99.90;;;;;;5083676;28;20416;-60
2023/05/12 03:32:13;;;;;;;9.32;6.30;;;12.40;99.90;;;;;;5082584;28;20416;-61
2023/05/12 03:34:39;;;;;;;8.88;6.57;;;12.40;99.90;;;;;;5079330;28;20427;-60
2023/05/12 03:37:06;;;;;;;10.82;6.88;;;12.40;99.90;;;;;;5082059;28;20778;-60
2023/05/12 03:39:33;;;;;;;11.77;7.65;;;12.30;99.90;;;;;;5081977;28;20882;-60
2023/05/12 03:41:59;;;;;;;14.63;8.17;;;12.30;99.90;;;;;;5083682;28;20492;-60
2023/05/12 03:44:27;;;;;;;14.48;8.85;;;12.10;99.90;;;;;;5082657;28;20884;-61
2023/05/12 03:46:54;;;;;;;12.40;7.78;;;12.20;99.90;;;;;;5082608;28;20415;-60
2023/05/12 03:49:20;;;;;;;12.80;7.63;;;12.20;99.90;;;;;;5083089;28;20416;-60
2023/05/12 03:51:47;;;;;;;11.40;6.97;;;12.20;99.90;;;;;;5084910;28;20410;-61
2023/05/12 03:54:14;;;;;;;13.32;7.75;;;12.20;99.90;;;;;;5083371;28;20796;-61
2023/05/12 03:56:40;;;;;;;11.85;7.50;;;12.10;99.90;;;;;;5082256;28;20888;-60
2023/05/12 03:59:07;;;;;;;11.02;7.25;;;12.20;99.90;;;;;;5078422;28;20404;-59
2023/05/12 04:01:35;;;;;;;16.00;6.77;;;12.20;99.90;;;;;;5083294;28;20799;-60
2023/05/12 04:04:02;;;;;;;9.98;6.35;;;12.20;99.90;;;;;;5074917;28;20435;-60
2023/05/12 04:06:29;;;;;;;8.75;6.43;;;12.20;99.90;;;;;;5083076;28;20429;-60
2023/05/12 04:08:55;;;;;;;7.50;5.95;;;12.30;99.90;;;;;;5080581;28;20499;-60
2023/05/12 04:11:22;;;;;;;8.00;5.70;;;12.30;99.90;;;;;;5080106;28;20419;-60
2023/05/12 04:13:49;;;;;;;8.60;5.82;;;12.30;99.90;;;;;;5082812;28;20428;-60
2023/05/12 04:16:15;;;;;;;8.30;6.40;;;12.30;99.90;;;;;;5084325;28;20475;-60
2023/05/12 04:18:43;;;;;;;9.45;6.32;;;12.20;99.90;;;;;;5082781;28;20416;-60
2023/05/12 04:21:10;;;;;;;8.60;6.20;;;12.20;99.90;;;;;;5082109;28;20769;-60
2023/05/12 04:23:36;;;;;;;9.60;6.22;;;12.20;99.90;;;;;;5083980;28;20402;-59
2023/05/12 04:26:04;;;;;;;8.17;6.40;;;12.20;99.90;;;;;;5083472;28;20746;-60
2023/05/12 04:28:30;;;;;;;7.53;6.10;;;12.30;99.90;;;;;;5081299;28;20411;-59
2023/05/12 04:31:02;;;;;;;9.40;6.38;;;12.20;99.90;;;;;;5081972;28;20781;-59
2023/05/12 04:33:28;;;;;;;8.38;6.03;;;12.20;99.90;;;;;;5080328;28;20426;-61
2023/05/12 04:35:57;;;;;;;9.35;5.50;;;12.20;99.90;;;;;;5082132;28;20496;-60
2023/05/12 04:38:24;;;;;;;7.53;5.53;;;12.30;99.90;;;;;;5081250;28;20888;-59
2023/05/12 04:40:50;;;;;;;6.65;5.53;;;12.30;99.90;;;;;;5083854;28;20410;-60
2023/05/12 04:43:17;;;;;;;7.93;5.38;;;12.30;99.90;;;;;;5083530;28;20414;-59
2023/05/12 04:45:44;;;;;;;7.40;5.78;;;12.40;99.90;;;;;;5080011;28;20822;-59
2023/05/12 04:48:10;;;;;;;6.95;5.45;;;12.30;99.90;;;;;;5081105;28;20420;-59
2023/05/12 04:50:37;;;;;;;6.28;5.30;;;12.30;99.90;;;;;;5080947;28;20819;-59
2023/05/12 04:53:05;;;;;;;7.00;4.63;;;12.30;99.90;;;;;;5081662;28;20477;-59
2023/05/12 04:55:31;;;;;;;34.78;9.57;;;12.40;99.90;;;;;;5081348;28;20411;-59
2023/05/12 04:57:58;;;;;;;16.13;6.05;;;12.30;99.90;;;;;;5083127;28;20412;-58
2023/05/12 05:00:25;;;;;;;23.88;7.18;;;12.40;99.90;;;;;;5082486;28;20412;-59
2023/05/12 05:02:51;;;;;;;10.43;5.30;;;12.50;99.90;;;;;;5077765;28;20427;-59
2023/05/12 05:05:18;;;;;;;6.13;4.90;;;12.50;99.90;;;;;;5081199;28;20917;-57
2023/05/12 05:07:45;;;;;;;12.20;5.05;;;12.50;99.90;;;;;;5080779;28;20477;-59
2023/05/12 05:10:13;;;;;;;9.40;5.63;;;12.50;99.90;;;;;;5083640;28;20410;-59
2023/05/12 05:12:39;;;;;;;13.70;6.07;;;12.60;99.90;;;;;;5081601;28;20485;-60
2023/05/12 05:15:08;;;;;;;13.60;5.35;;;12.60;99.90;;;;;;5080584;28;20449;-59
2023/05/12 05:17:35;;;;;;;30.10;7.83;;;12.70;99.90;;;;;;5081727;28;20425;-60
2023/05/12 05:20:02;;;;;;;18.10;5.70;;;12.60;99.90;;;;;;5082490;28;20410;-60
2023/05/12 05:22:29;;;;;;;12.50;4.77;;;12.70;99.90;;;;;;5080267;28;20416;-60
2023/05/12 05:24:56;;;;;;;6.68;4.63;;;12.80;99.90;;;;;;5081116;28;21138;-60
2023/05/12 05:27:23;;;;;;;5.68;3.92;;;12.80;99.90;;;;;;5082366;28;20414;-59
2023/05/12 05:29:50;;;;;;;17.70;5.50;;;12.60;99.90;;;;;;5069184;28;20419;-60
2023/05/12 05:32:17;;;;;;;7.72;4.90;;;12.70;99.90;;;;;;5082210;28;20477;-60
2023/05/12 05:34:43;;;;;;;19.20;6.32;;;12.70;99.90;;;;;;5063170;28;21167;-63
2023/05/12 05:37:10;;;;;;;6.15;4.97;;;12.70;99.90;;;;;;5067039;28;20419;-61
2023/05/12 05:39:37;;;;;;;7.17;5.27;;;12.70;99.90;;;;;;5074539;28;20418;-61
2023/05/12 05:42:04;;;;;;;7.53;5.30;;;12.60;99.90;;;;;;5073253;28;20420;-63
2023/05/12 05:44:32;;;;;;;5.55;4.95;;;12.60;99.90;;;;;;5079894;28;20411;-62
2023/05/12 05:46:58;;;;;;;8.77;5.67;;;12.70;99.90;;;;;;5069036;28;20416;-62
2023/05/12 05:49:25;;;;;;;7.90;5.45;;;12.70;99.90;;;;;;5080634;28;20422;-62
2023/05/12 05:51:52;;;;;;;5.90;5.13;;;12.80;99.90;;;;;;5075309;28;20544;-60
2023/05/12 05:54:18;;;;;;;6.50;4.82;;;12.80;99.90;;;;;;5080097;28;20511;-61
2023/05/12 05:56:45;;;;;;;19.73;6.63;;;12.80;99.90;;;;;;5078892;28;20481;-62
2023/05/12 05:59:13;;;;;;;7.72;4.90;;;12.90;99.90;;;;;;5074274;28;20406;-62
2023/05/12 06:01:41;;;;;;;6.18;5.38;;;12.90;99.90;;;;;;5080978;28;20422;-61
2023/05/12 06:04:07;;;;;;;6.60;4.93;;;13.00;99.90;;;;;;5077493;28;20400;-63
2023/05/12 06:06:34;;;;;;;5.68;5.00;;;12.90;99.90;;;;;;5080541;28;20417;-64
2023/05/12 06:09:00;;;;;;;5.85;4.93;;;12.90;99.90;;;;;;5077405;28;20811;-61
2023/05/12 06:11:27;;;;;;;5.75;5.15;;;12.80;99.90;;;;;;5081515;28;20414;-61
2023/05/12 06:13:54;;;;;;;7.28;5.40;;;12.90;99.90;;;;;;5073655;28;20423;-63
2023/05/12 06:16:20;;;;;;;5.73;5.23;;;12.90;99.90;;;;;;5077464;28;20902;-61
2023/05/12 06:18:48;;;;;;;6.65;5.95;;;13.00;99.90;;;;;;5078810;28;20414;-61
2023/05/12 06:21:15;;;;;;;6.93;5.70;;;13.10;99.90;;;;;;5079281;28;20955;-60
2023/05/12 06:23:41;;;;;;;6.07;5.43;;;13.00;99.90;;;;;;5077207;28;20410;-62
2023/05/12 06:26:08;;;;;;;7.60;6.15;;;13.10;99.90;;;;;;5076475;28;20418;-61
2023/05/12 06:28:35;;;;;;;6.30;5.20;;;13.30;99.90;;;;;;5071995;28;20485;-61
2023/05/12 06:31:01;;;;;;;6.80;5.47;;;13.20;99.90;;;;;;5078178;28;20470;-61
2023/05/12 06:33:28;;;;;;;6.70;5.50;;;13.40;99.90;;;;;;5078065;28;20952;-63
2023/05/12 06:35:56;;;;;;;6.07;5.05;;;13.60;99.90;;;;;;5068571;28;20409;-63
2023/05/12 06:38:22;;;;;;;6.67;5.27;;;13.60;99.90;;;;;;5074735;28;20413;-62
2023/05/12 06:40:49;;;;;;;6.20;5.20;;;13.30;99.90;;;;;;5075600;28;20511;-64
2023/05/12 06:43:16;;;;;;;8.00;5.40;;;13.30;99.90;;;;;;5078324;28;20906;-63
2023/05/12 06:45:43;;;;;;;6.72;5.30;;;13.30;99.90;;;;;;5077253;28;20415;-60
2023/05/12 06:48:10;;;;;;;22.77;7.32;;;13.30;99.90;;;;;;5070964;28;20496;-61
2023/05/12 06:50:37;;;;;;;7.93;5.67;;;13.30;99.90;;;;;;5073598;28;20539;-62
2023/05/12 06:53:06;;;;;;;6.45;5.10;;;13.30;99.90;;;;;;5069149;28;20477;-61
2023/05/12 06:55:33;;;;;;;6.35;5.65;;;13.30;99.90;;;;;;5075367;28;20473;-62
2023/05/12 06:58:00;;;;;;;8.85;5.90;;;13.20;99.90;;;;;;5079277;28;20421;-61
2023/05/12 07:00:26;;;;;;;8.90;5.50;;;13.20;99.90;;;;;;5080824;28;20417;-63
2023/05/12 07:02:53;;;;;;;6.78;5.43;;;13.20;99.90;;;;;;5075858;28;20419;-62
2023/05/12 07:05:20;;;;;;;7.47;5.10;;;13.10;99.90;;;;;;5081485;28;20906;-64
2023/05/12 07:07:46;;;;;;;6.45;4.70;;;13.20;99.90;;;;;;5079956;28;20467;-63
2023/05/12 07:10:15;;;;;;;6.40;5.05;;;13.20;99.90;;;;;;5082661;28;20463;-63
2023/05/12 07:12:41;;;;;;;5.75;4.85;;;13.30;99.90;;;;;;5082785;28;20423;-64
2023/05/12 07:15:09;;;;;;;5.35;4.70;;;13.20;99.90;;;;;;5079088;28;20496;-64
2023/05/12 07:17:36;;;;;;;5.65;4.78;;;13.20;99.90;;;;;;5072108;28;20415;-64
2023/05/12 07:20:03;;;;;;;8.00;4.83;;;13.10;99.90;;;;;;5079311;28;20804;-63
2023/05/12 07:22:31;;;;;;;7.13;4.70;;;13.00;99.90;;;;;;5080199;28;20755;-62
2023/05/12 07:24:58;;;;;;;7.75;5.22;;;13.00;99.90;;;;;;5084246;28;20410;-62
2023/05/12 07:27:26;;;;;;;6.53;4.53;;;13.00;99.90;;;;;;5082837;28;20526;-63
2023/05/12 07:29:52;;;;;;;6.47;4.93;;;13.00;99.90;;;;;;5075411;28;20488;-63
2023/05/12 07:32:19;;;;;;;5.35;4.85;;;13.10;99.90;;;;;;5079909;28;21036;-62
2023/05/12 07:34:45;;;;;;;5.45;4.80;;;13.10;99.90;;;;;;5077389;28;20424;-63
2023/05/12 07:37:12;;;;;;;6.00;4.72;;;13.10;99.90;;;;;;5079129;28;20426;-63
2023/05/12 07:39:39;;;;;;;6.20;5.10;;;13.20;99.90;;;;;;5080834;28;20429;-60
2023/05/12 07:42:06;;;;;;;8.25;4.88;;;13.20;99.90;;;;;;5080641;28;20469;-62
2023/05/12 07:44:35;;;;;;;7.18;5.55;;;13.20;99.90;;;;;;5081288;28;20418;-64
2023/05/12 07:47:01;;;;;;;6.03;5.43;;;13.30;99.90;;;;;;5080723;28;20494;-62
2023/05/12 07:49:28;;;;;;;6.60;5.45;;;13.40;99.90;;;;;;5078378;28;20419;-64
2023/05/12 07:51:54;;;;;;;7.13;5.95;;;13.50;99.90;;;;;;5078407;28;20477;-64
2023/05/12 07:54:21;;;;;;;6.05;5.45;;;13.60;99.90;;;;;;5083311;28;20918;-61
2023/05/12 07:56:48;;;;;;;7.93;5.43;;;13.60;99.90;;;;;;5077669;28;20419;-61
2023/05/12 07:59:14;;;;;;;7.55;5.90;;;13.60;99.90;;;;;;5083864;28;20443;-63
2023/05/12 08:01:42;;;;;;;8.45;5.50;;;13.60;99.90;;;;;;5076355;28;20419;-63
2023/05/12 08:04:09;;;;;;;6.00;5.35;;;13.70;99.90;;;;;;5074685;28;20412;-64
2023/05/12 08:06:36;;;;;;;6.50;5.28;;;13.70;99.90;;;;;;5084357;28;20474;-64
2023/05/12 08:09:03;;;;;;;7.00;4.90;;;13.80;99.90;;;;;;5082557;28;20444;-66
2023/05/12 08:11:29;;;;;;;6.38;4.82;;;13.80;99.90;;;;;;5081781;28;20529;-63
2023/05/12 08:13:56;;;;;;;6.45;4.70;;;13.90;99.90;;;;;;5079443;28;20413;-64
2023/05/12 08:16:23;;;;;;;7.00;5.30;;;13.80;99.90;;;;;;5081891;28;20463;-62
2023/05/12 08:18:51;;;;;;;6.35;4.80;;;13.90;99.90;;;;;;5077848;28;20419;-59
2023/05/12 08:21:17;;;;;;;6.60;5.45;;;13.90;99.90;;;;;;5077981;28;20410;-60
2023/05/12 08:23:44;;;;;;;6.15;5.55;;;13.90;99.90;;;;;;5074248;28;20779;-59
2023/05/12 08:26:11;;;;;;;7.65;5.82;;;14.00;99.90;;;;;;5081278;28;20419;-61
2023/05/12 08:28:37;;;;;;;5.72;5.22;;;14.00;99.90;;;;;;5081566;28;20422;-62
2023/05/12 08:31:04;;;;;;;7.10;4.83;;;14.10;99.90;;;;;;5078376;28;20446;-62
2023/05/12 08:33:31;;;;;;;6.65;4.93;;;14.20;99.90;;;;;;5075912;28;20437;-61
2023/05/12 08:35:59;;;;;;;5.53;4.82;;;14.20;99.90;;;;;;5080488;28;20503;-62
2023/05/12 08:38:26;;;;;;;4.80;4.40;;;14.40;99.90;;;;;;5080205;28;20502;-63
2023/05/12 08:41:01;;;;;;;5.15;4.32;;;14.60;99.90;;;;;;5081026;28;20492;-61
2023/05/12 08:43:37;;;;;;;8.35;5.80;;;14.60;99.90;;;;;;5076735;28;20468;-63
2023/05/12 08:46:04;;;;;;;5.70;4.55;;;14.60;99.90;;;;;;5078314;28;20407;-61
2023/05/12 08:48:34;;;;;;;5.25;4.40;;;14.60;99.90;;;;;;5075686;28;20467;-65
2023/05/12 08:51:03;;;;;;;4.95;4.28;;;14.60;99.90;;;;;;5077797;28;20467;-65
2023/05/12 08:53:33;;;;;;;9.17;5.10;;;14.80;99.90;;;;;;5078291;28;20523;-65
2023/05/12 08:56:00;;;;;;;5.30;4.35;;;;;;;;;;5078183;28;20460;-69
2023/05/12 08:58:27;;;;;;;7.05;4.43;;;14.90;99.90;;;;;;5076310;28;20423;-62
2023/05/12 09:00:54;;;;;;;6.55;4.32;;;14.90;99.90;;;;;;5082518;28;20464;-63
2023/05/12 09:03:23;;;;;;;7.67;4.13;;;14.80;99.90;;;;;;5074393;28;20891;-63
2023/05/12 09:05:50;;;;;;;6.63;4.30;;;;;;;;;;5078014;28;20452;-63
2023/05/12 09:08:18;;;;;;;4.70;4.20;;;;;;;;;;5074148;28;20522;-63
2023/05/12 09:10:45;;;;;;;5.72;4.30;;;15.30;99.90;;;;;;5081759;28;20914;-63
2023/05/12 09:13:17;;;;;;;6.90;4.00;;;15.30;99.90;;;;;;5079647;28;20424;-63
2023/05/12 09:15:46;;;;;;;5.72;4.20;;;15.20;99.90;;;;;;5079036;28;20475;-63
2023/05/12 09:18:13;;;;;;;5.40;4.10;;;15.30;99.90;;;;;;5076117;28;20409;-63
2023/05/12 09:20:40;;;;;;;5.03;3.95;;;15.40;99.90;;;;;;5080141;28;20417;-63
2023/05/12 09:23:19;;;;;;;4.55;3.60;;;15.60;99.90;;;;;;5071763;28;20415;-63
2023/05/12 09:25:47;;;;;;;6.40;4.15;;;15.50;99.90;;;;;;5079024;28;20452;-65
2023/05/12 09:28:14;;;;;;;4.15;3.75;;;15.60;99.90;;;;;;5075884;28;20426;-64
2023/05/12 09:30:41;;;;;;;4.15;3.50;;;15.70;99.90;;;;;;5077852;28;20423;-64
2023/05/12 09:33:08;;;;;;;6.40;3.95;;;15.80;99.90;;;;;;5074841;28;20419;-64
2023/05/12 09:35:40;;;;;;;6.07;3.90;;;15.60;99.90;;;;;;5077622;28;20464;-61
2023/05/12 09:38:07;;;;;;;7.00;3.55;;;15.70;99.90;;;;;;5070492;28;20905;-60
2023/05/12 09:40:36;;;;;;;4.53;3.50;;;15.80;99.90;;;;;;5077599;28;20423;-61
2023/05/12 09:43:03;;;;;;;4.80;3.55;;;15.80;99.90;;;;;;5079094;28;20462;-63
2023/05/12 09:45:34;;;;;;;5.80;3.47;;;15.90;99.90;;;;;;5083562;28;20420;-62
2023/05/12 09:48:09;;;;;;;4.00;3.60;;;16.00;99.90;;;;;;5077133;28;20466;-63
2023/05/12 09:50:43;;;;;;;4.30;3.22;;;16.20;99.90;;;;;;5081204;28;20787;-62
2023/05/12 09:53:10;;;;;;;4.70;3.13;;;16.30;99.90;;;;;;5079227;28;20420;-63
2023/05/12 09:55:38;;;;;;;3.95;3.00;;;16.50;99.90;;;;;;5075272;28;20426;-64
2023/05/12 09:58:08;;;;;;;3.30;3.00;;;16.70;99.90;;;;;;5075184;28;20841;-60
2023/05/12 10:00:37;;;;;;;3.50;2.95;;;16.80;44.00;;;;;;5079161;28;20412;-61
2023/05/12 10:03:09;;;;;;;3.70;3.00;;;16.80;93.90;;;;;;5077450;28;20434;-62
2023/05/12 10:05:38;;;;;;;3.83;2.70;;;16.80;99.80;;;;;;5074768;28;20415;-62
2023/05/12 10:08:07;;;;;;;3.40;3.10;;;17.00;99.90;;;;;;5075306;28;20968;-62
2023/05/12 10:10:37;;;;;;;3.72;2.70;;;17.20;92.00;;;;;;5070808;28;20527;-63
2023/05/12 10:13:05;;;;;;;4.03;3.00;;;17.20;1.00;;;;;;5082506;28;20421;-58
2023/05/12 10:15:34;;;;;;;4.05;3.08;;;17.10;1.00;;;;;;5078819;28;20431;-59
2023/05/12 10:18:01;;;;;;;3.47;3.05;;;17.10;1.00;;;;;;5076711;28;20416;-61
2023/05/12 10:20:28;;;;;;;5.90;2.80;;;17.20;1.00;;;;;;5080289;28;20945;-62
2023/05/12 10:22:57;;;;;;;4.55;3.45;;;17.30;1.00;;;;;;5079726;28;20730;-64
2023/05/12 10:25:24;;;;;;;4.20;3.67;;;17.20;99.90;;;;;;5082792;28;20411;-65
2023/05/12 10:27:52;;;;;;;4.32;3.60;;;17.00;99.90;;;;;;5080072;28;20424;-63
2023/05/12 10:30:21;;;;;;;5.25;3.97;;;17.00;99.90;;;;;;5078108;28;20430;-65
2023/05/12 10:32:49;;;;;;;5.07;4.03;;;17.20;99.90;;;;;;5074536;28;20969;-64
2023/05/12 10:35:16;;;;;;;6.20;4.18;;;17.30;99.90;;;;;;5077086;28;20434;-66
2023/05/12 10:37:43;;;;;;;5.37;4.00;;;17.10;99.90;;;;;;5072693;28;20415;-69
2023/05/12 10:40:10;;;;;;;4.70;3.70;;;16.90;99.90;;;;;;5071457;28;20413;-67
2023/05/12 10:42:39;;;;;;;6.10;4.03;;;16.80;66.50;;;;;;5078304;28;20407;-67
2023/05/12 10:45:16;;;;;;;4.40;3.73;;;16.80;23.00;;;;;;5074750;28;20419;-65
2023/05/12 10:47:45;;;;;;;4.32;3.83;;;16.70;31.80;;;;;;5071395;28;20934;-64
2023/05/12 10:50:13;;;;;;;5.80;3.90;;;16.90;1.00;;;;;;5072416;28;20484;-67
2023/05/12 10:52:52;;;;;;;6.63;3.80;;;16.80;99.90;;;;;;5076465;28;20489;-68
2023/05/12 10:55:29;;;;;;;6.28;4.43;;;16.80;99.90;;;;;;5075907;28;20425;-65
2023/05/12 10:58:04;;;;;;;7.78;4.43;;;16.90;1.00;;;;;;5072949;28;20477;-63
2023/05/12 11:00:32;;;;;;;6.85;4.40;;;16.90;99.90;;;;;;5067257;28;20425;-63
2023/05/12 11:03:02;;;;;;;5.70;4.25;;;16.80;1.00;;;;;;5071307;28;20415;-65
2023/05/12 11:05:34;;;;;;;7.55;4.57;;;16.80;71.40;;;;;;5071884;28;20423;-65
2023/05/12 11:08:01;;;;;;;6.40;4.72;;;16.90;20.50;;;;;;5077687;28;20422;-66
2023/05/12 11:10:28;;;;;;;5.68;3.80;;;16.90;99.90;;;;;;5071737;28;20474;-69
2023/05/12 11:12:56;;;;;;;6.82;4.13;;;17.00;1.00;;;;;;5078422;28;20419;-65
2023/05/12 11:15:23;;;;;;;4.28;3.88;;;17.10;1.00;;;;;;5076520;28;20433;-68
2023/05/12 11:17:49;;;;;;;5.50;3.87;;;17.20;99.90;;;;;;5078988;28;20977;-66
2023/05/12 11:20:23;;;;;;;6.20;3.97;;;17.30;99.90;;;;;;5080343;28;20482;-67
2023/05/12 11:22:50;;;;;;;6.22;3.88;;;17.30;1.00;;;;;;5070173;28;20410;-69
2023/05/12 11:25:18;;;;;;;4.82;3.88;;;17.40;41.70;;;;;;5080192;28;20903;-70
2023/05/12 11:27:48;;;;;;;6.35;3.80;;;17.70;1.00;;;;;;5071553;28;20421;-68
2023/05/12 11:30:15;;;;;;;5.15;3.88;;;17.90;99.90;;;;;;5080673;28;20450;-70
2023/05/12 11:32:42;;;;;;;5.93;4.13;;;18.00;99.90;;;;;;5079074;28;20465;-68
2023/05/12 11:35:14;;;;;;;5.45;3.95;;;18.00;99.90;;;;;;5080877;28;20435;-66
2023/05/12 11:37:44;;;;;;;6.40;3.95;;;18.10;11.00;;;;;;5072899;28;20421;-65
2023/05/12 11:40:16;;;;;;;4.45;3.92;;;18.50;99.90;;;;;;5075642;28;20756;-65
2023/05/12 11:42:47;;;;;;;5.45;3.85;;;18.50;35.00;;;;;;5078344;28;20422;-65
2023/05/12 11:45:21;;;;;;;5.00;4.00;;;18.40;99.90;;;;;;5081916;28;20439;-66
2023/05/12 11:47:48;;;;;;;5.40;4.28;;;18.30;1.00;;;;;;5070286;28;20900;-66
2023/05/12 11:50:21;;;;;;;4.68;4.10;;;18.10;1.00;;;;;;5084439;28;20427;-68
2023/05/12 11:52:49;;;;;;;4.75;4.25;;;18.00;99.90;;;;;;5080173;28;20417;-65
2023/05/12 11:55:21;;;;;;;5.75;4.43;;;18.00;99.90;;;;;;5084545;28;20435;-65
2023/05/12 11:58:00;;;;;;;7.47;4.38;;;18.10;99.90;;;;;;5080978;28;20454;-65
2023/05/12 12:00:28;;;;;;;5.03;4.30;;;18.10;73.20;;;;;;5080858;28;20904;-67
2023/05/12 12:03:12;;;;;;;5.47;4.07;;;18.10;1.00;;;;;;5070062;28;20431;-67
2023/05/12 12:05:39;;;;;;;5.32;4.05;;;18.10;99.90;;;;;;5079300;28;20465;-66
2023/05/12 12:08:11;;;;;;;5.80;4.18;;;18.30;1.00;;;;;;5080915;28;20963;-67
2023/05/12 12:10:37;;;;;;;6.30;4.20;;;18.10;99.90;;;;;;5085209;28;20456;-65
2023/05/12 12:13:04;;;;;;;4.65;4.25;;;18.10;99.90;;;;;;5081655;28;20461;-64
2023/05/12 12:15:31;;;;;;;4.47;4.07;;;18.10;1.00;;;;;;5084034;28;20425;-64
2023/05/12 12:18:01;;;;;;;4.78;4.28;;;17.90;99.90;;;;;;5077224;28;20424;-65
2023/05/12 12:20:28;;;;;;;4.95;4.10;;;18.00;99.90;;;;;;5079505;28;20441;-65
2023/05/12 12:22:55;;;;;;;4.93;4.10;;;18.20;99.90;;;;;;5081138;28;20412;-67
2023/05/12 12:25:23;;;;;;;5.10;3.88;;;18.40;99.90;;;;;;5081027;28;20414;-63
2023/05/12 12:27:51;;;;;;;5.63;4.03;;;18.30;74.00;;;;;;5078755;28;20424;-66
2023/05/12 12:30:18;;;;;;;5.00;3.90;;;18.30;1.00;;;;;;5077013;28;20482;-64
2023/05/12 12:32:45;;;;;;;6.35;4.43;;;18.40;99.90;;;;;;5074435;28;20521;-66
2023/05/12 12:35:12;;;;;;;5.57;4.50;;;18.50;1.00;;;;;;5076789;28;20942;-61
2023/05/12 12:37:40;;;;;;;6.68;4.95;;;18.60;1.00;;;;;;5076486;28;20427;-58
2023/05/12 12:40:08;;;;;;;6.93;5.18;;;18.70;1.00;;;;;;5074931;28;20417;-61
2023/05/12 12:42:39;;;;;;;7.18;5.70;;;18.50;1.00;;;;;;5082570;28;20479;-62
2023/05/12 12:45:08;;;;;;;7.10;4.97;;;18.40;1.00;;;;;;5076323;28;20418;-62
2023/05/12 12:47:35;;;;;;;7.35;4.78;;;18.40;35.80;;;;;;5081895;28;20747;-61